首页
METAR-TAF:

METAR-TAF

机场 :

平壤順安國際機場

平壤, 朝鲜民主主义人民共和国

纬度: 39-02N, 经度: 125-47E, 海拔: 36米

METAR: 丢失

时间: 02:32 (18:02 UTC)

预报

该预报发布于14小时和2分钟前的04:00 UTC
预报有效从23日的 06点(UTC)到 24日的 06点(UTC)
风速8节,风向西
能见度10公里或以上
1500米以下无云,无积雨云

TAF: ZKPY 230400Z 2306/2406 26004MPS CAVOK TX28/2307Z TN18/2321Z

超过4000个机场的气象观测和天气预报(METAR&TAF报告)。

可查询的气象台以黄色和红色小点在地图上表示。

将鼠标移到小点上方,可查看气象台名称。

然后点击查看天气观测和预报。

如需切换地图:点击带黑十字的绿色按钮放大地图;点击带横线的绿色按钮缩小地图;或者点击绿色箭头查看邻近地区的地图。


METAR-TAF: